sensor_id;sensor_type;location;lat;lon;timestamp;P1;durP1;ratioP1;P2;durP2;ratioP2
67074;SDS011;53990;50.334;18.640;2023-02-19T00:01:46;4.40;;;2.60;;
67074;SDS011;53990;50.334;18.640;2023-02-19T00:04:15;3.90;;;2.20;;
67074;SDS011;53990;50.334;18.640;2023-02-19T00:06:45;4.60;;;2.40;;
67074;SDS011;53990;50.334;18.640;2023-02-19T00:09:14;4.70;;;3.10;;
67074;SDS011;53990;50.334;18.640;2023-02-19T00:11:42;3.90;;;2.30;;
67074;SDS011;53990;50.334;18.640;2023-02-19T00:14:10;3.30;;;2.10;;
67074;SDS011;53990;50.334;18.640;2023-02-19T00:16:40;4.40;;;2.70;;
67074;SDS011;53990;50.334;18.640;2023-02-19T00:19:11;5.00;;;2.70;;
67074;SDS011;53990;50.334;18.640;2023-02-19T00:21:39;5.50;;;3.00;;
67074;SDS011;53990;50.334;18.640;2023-02-19T00:24:07;3.80;;;2.40;;
67074;SDS011;53990;50.334;18.640;2023-02-19T00:26:34;4.20;;;2.20;;
67074;SDS011;53990;50.334;18.640;2023-02-19T00:29:04;3.20;;;1.90;;
67074;SDS011;53990;50.334;18.640;2023-02-19T00:31:33;4.80;;;2.60;;
67074;SDS011;53990;50.334;18.640;2023-02-19T00:34:03;4.40;;;2.40;;
67074;SDS011;53990;50.334;18.640;2023-02-19T00:36:32;6.20;;;3.60;;
67074;SDS011;53990;50.334;18.640;2023-02-19T00:39:02;4.90;;;2.70;;
67074;SDS011;53990;50.334;18.640;2023-02-19T00:41:31;4.90;;;2.80;;
67074;SDS011;53990;50.334;18.640;2023-02-19T00:44:00;5.30;;;3.20;;
67074;SDS011;53990;50.334;18.640;2023-02-19T00:48:57;5.30;;;3.00;;
67074;SDS011;53990;50.334;18.640;2023-02-19T00:51:27;5.10;;;3.20;;
67074;SDS011;53990;50.334;18.640;2023-02-19T00:53:55;7.70;;;3.10;;
67074;SDS011;53990;50.334;18.640;2023-02-19T00:56:23;7.40;;;3.50;;
67074;SDS011;53990;50.334;18.640;2023-02-19T00:58:50;6.40;;;3.10;;
67074;SDS011;53990;50.334;18.640;2023-02-19T01:01:18;7.10;;;3.70;;
67074;SDS011;53990;50.334;18.640;2023-02-19T01:03:46;7.00;;;3.30;;
67074;SDS011;53990;50.334;18.640;2023-02-19T01:06:15;5.70;;;4.00;;
67074;SDS011;53990;50.334;18.640;2023-02-19T01:08:44;6.50;;;4.00;;
67074;SDS011;53990;50.334;18.640;2023-02-19T01:11:12;7.10;;;3.60;;
67074;SDS011;53990;50.334;18.640;2023-02-19T01:13:41;7.10;;;3.60;;
67074;SDS011;53990;50.334;18.640;2023-02-19T01:16:15;6.00;;;3.30;;
67074;SDS011;53990;50.334;18.640;2023-02-19T01:18:44;5.60;;;3.50;;
67074;SDS011;53990;50.334;18.640;2023-02-19T01:21:13;5.40;;;2.90;;
67074;SDS011;53990;50.334;18.640;2023-02-19T01:23:41;4.30;;;2.70;;
67074;SDS011;53990;50.334;18.640;2023-02-19T01:26:12;4.90;;;2.80;;
67074;SDS011;53990;50.334;18.640;2023-02-19T01:28:41;5.00;;;2.70;;
67074;SDS011;53990;50.334;18.640;2023-02-19T01:31:12;4.10;;;2.40;;
67074;SDS011;53990;50.334;18.640;2023-02-19T01:33:43;5.30;;;3.50;;
67074;SDS011;53990;50.334;18.640;2023-02-19T01:36:12;6.20;;;3.90;;
67074;SDS011;53990;50.334;18.640;2023-02-19T01:38:40;6.30;;;4.10;;
67074;SDS011;53990;50.334;18.640;2023-02-19T01:41:10;6.90;;;4.90;;
67074;SDS011;53990;50.334;18.640;2023-02-19T01:46:31;7.20;;;5.60;;
67074;SDS011;53990;50.334;18.640;2023-02-19T01:49:23;7.20;;;5.40;;
67074;SDS011;53990;50.334;18.640;2023-02-19T01:51:56;7.20;;;5.30;;
67074;SDS011;53990;50.334;18.640;2023-02-19T01:54:33;6.90;;;5.20;;
67074;SDS011;53990;50.334;18.640;2023-02-19T01:57:05;8.30;;;5.70;;
67074;SDS011;53990;50.334;18.640;2023-02-19T01:59:33;8.50;;;5.70;;
67074;SDS011;53990;50.334;18.640;2023-02-19T02:02:00;7.10;;;5.40;;
67074;SDS011;53990;50.334;18.640;2023-02-19T02:04:30;7.30;;;5.70;;
67074;SDS011;53990;50.334;18.640;2023-02-19T02:07:00;6.80;;;5.20;;
67074;SDS011;53990;50.334;18.640;2023-02-19T02:09:29;7.40;;;5.30;;
67074;SDS011;53990;50.334;18.640;2023-02-19T02:12:15;7.90;;;5.50;;
67074;SDS011;53990;50.334;18.640;2023-02-19T02:14:45;6.80;;;4.50;;
67074;SDS011;53990;50.334;18.640;2023-02-19T02:17:24;6.30;;;4.60;;
67074;SDS011;53990;50.334;18.640;2023-02-19T02:20:17;5.40;;;4.10;;
67074;SDS011;53990;50.334;18.640;2023-02-19T02:22:54;5.20;;;3.60;;
67074;SDS011;53990;50.334;18.640;2023-02-19T02:34:09;4.40;;;2.30;;
67074;SDS011;53990;50.334;18.640;2023-02-19T02:36:41;3.40;;;2.30;;
67074;SDS011;53990;50.334;18.640;2023-02-19T02:39:12;3.80;;;1.90;;
67074;SDS011;53990;50.334;18.640;2023-02-19T02:41:47;4.00;;;2.20;;
67074;SDS011;53990;50.334;18.640;2023-02-19T02:44:36;3.20;;;1.90;;
67074;SDS011;53990;50.334;18.640;2023-02-19T02:47:05;3.30;;;1.90;;
67074;SDS011;53990;50.334;18.640;2023-02-19T02:49:33;2.40;;;1.50;;
67074;SDS011;53990;50.334;18.640;2023-02-19T02:52:21;3.00;;;1.90;;
67074;SDS011;53990;50.334;18.640;2023-02-19T02:55:08;3.50;;;2.40;;
67074;SDS011;53990;50.334;18.640;2023-02-19T02:57:37;4.10;;;2.40;;
67074;SDS011;53990;50.334;18.640;2023-02-19T03:00:05;3.10;;;2.00;;
67074;SDS011;53990;50.334;18.640;2023-02-19T03:02:33;3.50;;;2.00;;
67074;SDS011;53990;50.334;18.640;2023-02-19T03:05:18;3.30;;;2.00;;
67074;SDS011;53990;50.334;18.640;2023-02-19T03:08:13;4.00;;;2.10;;
67074;SDS011;53990;50.334;18.640;2023-02-19T03:11:01;4.20;;;2.30;;
67074;SDS011;53990;50.334;18.640;2023-02-19T03:13:54;4.70;;;3.00;;
67074;SDS011;53990;50.334;18.640;2023-02-19T03:16:44;7.90;;;3.40;;
67074;SDS011;53990;50.334;18.640;2023-02-19T03:19:34;7.30;;;4.10;;
67074;SDS011;53990;50.334;18.640;2023-02-19T03:22:23;8.90;;;5.10;;
67074;SDS011;53990;50.334;18.640;2023-02-19T03:24:57;12.90;;;6.60;;
67074;SDS011;53990;50.334;18.640;2023-02-19T03:27:46;12.20;;;6.60;;
67074;SDS011;53990;50.334;18.640;2023-02-19T03:30:18;10.50;;;6.10;;
67074;SDS011;53990;50.334;18.640;2023-02-19T03:32:50;8.40;;;5.80;;
67074;SDS011;53990;50.334;18.640;2023-02-19T03:35:23;9.00;;;5.50;;
67074;SDS011;53990;50.334;18.640;2023-02-19T03:40:37;9.90;;;5.80;;
67074;SDS011;53990;50.334;18.640;2023-02-19T03:48:37;9.50;;;5.50;;
67074;SDS011;53990;50.334;18.640;2023-02-19T03:53:51;11.60;;;7.80;;
67074;SDS011;53990;50.334;18.640;2023-02-19T03:56:42;15.20;;;8.40;;
67074;SDS011;53990;50.334;18.640;2023-02-19T03:59:19;14.70;;;8.40;;
67074;SDS011;53990;50.334;18.640;2023-02-19T04:01:55;15.40;;;9.90;;
67074;SDS011;53990;50.334;18.640;2023-02-19T04:04:31;15.30;;;9.20;;
67074;SDS011;53990;50.334;18.640;2023-02-19T04:07:00;18.40;;;10.00;;
67074;SDS011;53990;50.334;18.640;2023-02-19T04:09:40;15.20;;;9.50;;
67074;SDS011;53990;50.334;18.640;2023-02-19T04:12:09;16.20;;;9.60;;
67074;SDS011;53990;50.334;18.640;2023-02-19T04:14:41;16.20;;;9.70;;
67074;SDS011;53990;50.334;18.640;2023-02-19T04:17:24;16.70;;;9.10;;
67074;SDS011;53990;50.334;18.640;2023-02-19T04:19:53;15.70;;;8.60;;
67074;SDS011;53990;50.334;18.640;2023-02-19T04:22:22;14.90;;;9.10;;
67074;SDS011;53990;50.334;18.640;2023-02-19T04:24:52;17.20;;;9.60;;
67074;SDS011;53990;50.334;18.640;2023-02-19T04:27:21;13.20;;;8.10;;
67074;SDS011;53990;50.334;18.640;2023-02-19T04:29:48;13.30;;;7.60;;
67074;SDS011;53990;50.334;18.640;2023-02-19T04:32:16;14.80;;;9.00;;
67074;SDS011;53990;50.334;18.640;2023-02-19T04:34:43;12.50;;;8.00;;
67074;SDS011;53990;50.334;18.640;2023-02-19T04:37:11;14.10;;;8.80;;
67074;SDS011;53990;50.334;18.640;2023-02-19T04:39:38;14.00;;;8.20;;
67074;SDS011;53990;50.334;18.640;2023-02-19T04:42:05;13.50;;;8.20;;
67074;SDS011;53990;50.334;18.640;2023-02-19T04:44:33;13.20;;;8.70;;
67074;SDS011;53990;50.334;18.640;2023-02-19T04:47:00;13.20;;;8.30;;
67074;SDS011;53990;50.334;18.640;2023-02-19T04:49:28;16.90;;;9.10;;
67074;SDS011;53990;50.334;18.640;2023-02-19T04:51:55;14.00;;;8.50;;
67074;SDS011;53990;50.334;18.640;2023-02-19T04:54:22;14.80;;;7.90;;
67074;SDS011;53990;50.334;18.640;2023-02-19T04:56:50;13.10;;;7.90;;
67074;SDS011;53990;50.334;18.640;2023-02-19T04:59:17;12.70;;;7.50;;
67074;SDS011;53990;50.334;18.640;2023-02-19T05:01:44;12.90;;;7.70;;
67074;SDS011;53990;50.334;18.640;2023-02-19T05:04:11;12.40;;;7.10;;
67074;SDS011;53990;50.334;18.640;2023-02-19T05:06:39;8.50;;;5.50;;
67074;SDS011;53990;50.334;18.640;2023-02-19T05:09:06;9.50;;;6.00;;
67074;SDS011;53990;50.334;18.640;2023-02-19T05:11:33;8.20;;;5.70;;
67074;SDS011;53990;50.334;18.640;2023-02-19T05:14:00;8.40;;;5.50;;
67074;SDS011;53990;50.334;18.640;2023-02-19T05:16:28;8.40;;;5.80;;
67074;SDS011;53990;50.334;18.640;2023-02-19T05:18:55;8.40;;;6.30;;
67074;SDS011;53990;50.334;18.640;2023-02-19T05:21:22;7.50;;;5.50;;
67074;SDS011;53990;50.334;18.640;2023-02-19T05:23:50;9.60;;;6.30;;
67074;SDS011;53990;50.334;18.640;2023-02-19T05:26:21;13.40;;;7.90;;
67074;SDS011;53990;50.334;18.640;2023-02-19T05:28:52;9.50;;;6.60;;
67074;SDS011;53990;50.334;18.640;2023-02-19T05:31:19;7.90;;;5.80;;
67074;SDS011;53990;50.334;18.640;2023-02-19T05:33:47;8.70;;;5.70;;
67074;SDS011;53990;50.334;18.640;2023-02-19T05:36:19;8.10;;;5.60;;
67074;SDS011;53990;50.334;18.640;2023-02-19T05:38:47;7.00;;;5.20;;
67074;SDS011;53990;50.334;18.640;2023-02-19T05:41:20;7.40;;;4.80;;
67074;SDS011;53990;50.334;18.640;2023-02-19T05:43:49;8.50;;;5.70;;
67074;SDS011;53990;50.334;18.640;2023-02-19T05:46:19;7.00;;;5.50;;
67074;SDS011;53990;50.334;18.640;2023-02-19T05:48:48;9.20;;;5.70;;
67074;SDS011;53990;50.334;18.640;2023-02-19T05:51:17;6.60;;;4.30;;
67074;SDS011;53990;50.334;18.640;2023-02-19T05:53:45;6.80;;;4.10;;
67074;SDS011;53990;50.334;18.640;2023-02-19T05:56:30;6.30;;;5.00;;
67074;SDS011;53990;50.334;18.640;2023-02-19T05:59:01;7.30;;;5.80;;
67074;SDS011;53990;50.334;18.640;2023-02-19T06:01:30;7.10;;;5.60;;
67074;SDS011;53990;50.334;18.640;2023-02-19T06:03:57;5.80;;;4.50;;
67074;SDS011;53990;50.334;18.640;2023-02-19T06:06:25;6.60;;;5.20;;
67074;SDS011;53990;50.334;18.640;2023-02-19T06:08:53;6.90;;;4.20;;
67074;SDS011;53990;50.334;18.640;2023-02-19T06:11:22;5.90;;;4.10;;
67074;SDS011;53990;50.334;18.640;2023-02-19T06:13:49;7.20;;;6.10;;
67074;SDS011;53990;50.334;18.640;2023-02-19T06:16:17;7.70;;;5.90;;
67074;SDS011;53990;50.334;18.640;2023-02-19T06:18:45;8.60;;;6.40;;
67074;SDS011;53990;50.334;18.640;2023-02-19T06:21:13;8.40;;;6.00;;
67074;SDS011;53990;50.334;18.640;2023-02-19T06:23:42;8.10;;;6.20;;
67074;SDS011;53990;50.334;18.640;2023-02-19T06:26:16;10.70;;;7.70;;
67074;SDS011;53990;50.334;18.640;2023-02-19T06:28:45;10.00;;;7.50;;
67074;SDS011;53990;50.334;18.640;2023-02-19T06:31:15;7.50;;;5.90;;
67074;SDS011;53990;50.334;18.640;2023-02-19T06:33:43;7.50;;;5.40;;
67074;SDS011;53990;50.334;18.640;2023-02-19T06:36:14;7.10;;;4.40;;
67074;SDS011;53990;50.334;18.640;2023-02-19T06:38:43;6.00;;;4.60;;
67074;SDS011;53990;50.334;18.640;2023-02-19T06:41:11;5.70;;;4.20;;
67074;SDS011;53990;50.334;18.640;2023-02-19T06:43:39;4.90;;;3.90;;
67074;SDS011;53990;50.334;18.640;2023-02-19T06:46:07;4.70;;;3.30;;
67074;SDS011;53990;50.334;18.640;2023-02-19T06:48:35;4.70;;;3.70;;
67074;SDS011;53990;50.334;18.640;2023-02-19T06:51:05;4.20;;;3.30;;
67074;SDS011;53990;50.334;18.640;2023-02-19T06:53:33;5.00;;;3.70;;
67074;SDS011;53990;50.334;18.640;2023-02-19T06:56:06;6.50;;;4.60;;
67074;SDS011;53990;50.334;18.640;2023-02-19T06:58:34;5.20;;;3.90;;
67074;SDS011;53990;50.334;18.640;2023-02-19T07:01:01;16.60;;;8.80;;
67074;SDS011;53990;50.334;18.640;2023-02-19T07:03:29;6.40;;;4.40;;
67074;SDS011;53990;50.334;18.640;2023-02-19T07:05:58;7.20;;;5.50;;
67074;SDS011;53990;50.334;18.640;2023-02-19T07:08:26;6.50;;;4.70;;
67074;SDS011;53990;50.334;18.640;2023-02-19T07:10:57;7.40;;;4.90;;
67074;SDS011;53990;50.334;18.640;2023-02-19T07:13:25;6.70;;;4.70;;
67074;SDS011;53990;50.334;18.640;2023-02-19T07:15:58;7.40;;;5.10;;
67074;SDS011;53990;50.334;18.640;2023-02-19T07:18:25;11.30;;;7.10;;
67074;SDS011;53990;50.334;18.640;2023-02-19T07:20:53;7.60;;;5.20;;
67074;SDS011;53990;50.334;18.640;2023-02-19T07:23:20;7.70;;;5.70;;
67074;SDS011;53990;50.334;18.640;2023-02-19T07:25:47;7.40;;;4.60;;
67074;SDS011;53990;50.334;18.640;2023-02-19T07:28:15;7.40;;;5.50;;
67074;SDS011;53990;50.334;18.640;2023-02-19T07:30:42;7.40;;;5.40;;
67074;SDS011;53990;50.334;18.640;2023-02-19T07:33:10;7.90;;;5.30;;
67074;SDS011;53990;50.334;18.640;2023-02-19T07:35:37;8.30;;;5.50;;
67074;SDS011;53990;50.334;18.640;2023-02-19T07:38:04;7.30;;;5.60;;
67074;SDS011;53990;50.334;18.640;2023-02-19T07:40:32;8.20;;;6.30;;
67074;SDS011;53990;50.334;18.640;2023-02-19T07:43:00;8.60;;;5.10;;
67074;SDS011;53990;50.334;18.640;2023-02-19T07:45:28;7.40;;;5.10;;
67074;SDS011;53990;50.334;18.640;2023-02-19T07:47:55;6.90;;;5.20;;
67074;SDS011;53990;50.334;18.640;2023-02-19T07:50:22;6.00;;;4.80;;
67074;SDS011;53990;50.334;18.640;2023-02-19T07:52:50;7.10;;;5.40;;
67074;SDS011;53990;50.334;18.640;2023-02-19T07:55:17;7.10;;;5.70;;
67074;SDS011;53990;50.334;18.640;2023-02-19T07:57:45;9.40;;;6.90;;
67074;SDS011;53990;50.334;18.640;2023-02-19T08:00:12;10.60;;;7.60;;
67074;SDS011;53990;50.334;18.640;2023-02-19T08:02:40;16.90;;;9.80;;
67074;SDS011;53990;50.334;18.640;2023-02-19T08:05:27;27.20;;;15.40;;
67074;SDS011;53990;50.334;18.640;2023-02-19T08:07:55;22.30;;;13.80;;
67074;SDS011;53990;50.334;18.640;2023-02-19T08:10:22;15.30;;;10.60;;
67074;SDS011;53990;50.334;18.640;2023-02-19T08:13:14;12.40;;;9.10;;
67074;SDS011;53990;50.334;18.640;2023-02-19T08:16:07;10.30;;;7.90;;
67074;SDS011;53990;50.334;18.640;2023-02-19T08:18:34;10.70;;;8.60;;
67074;SDS011;53990;50.334;18.640;2023-02-19T08:21:02;24.10;;;12.80;;
67074;SDS011;53990;50.334;18.640;2023-02-19T08:23:30;17.60;;;10.70;;
67074;SDS011;53990;50.334;18.640;2023-02-19T08:25:58;20.60;;;13.40;;
67074;SDS011;53990;50.334;18.640;2023-02-19T08:28:26;34.70;;;18.40;;
67074;SDS011;53990;50.334;18.640;2023-02-19T08:31:01;35.20;;;19.70;;
67074;SDS011;53990;50.334;18.640;2023-02-19T08:33:28;35.60;;;19.80;;
67074;SDS011;53990;50.334;18.640;2023-02-19T08:36:00;38.80;;;21.80;;
67074;SDS011;53990;50.334;18.640;2023-02-19T08:38:32;30.30;;;16.80;;
67074;SDS011;53990;50.334;18.640;2023-02-19T08:41:10;34.30;;;18.90;;
67074;SDS011;53990;50.334;18.640;2023-02-19T08:43:38;32.90;;;18.80;;
67074;SDS011;53990;50.334;18.640;2023-02-19T08:46:06;33.30;;;19.20;;
67074;SDS011;53990;50.334;18.640;2023-02-19T08:48:36;25.40;;;15.60;;
67074;SDS011;53990;50.334;18.640;2023-02-19T08:51:07;32.60;;;17.70;;
67074;SDS011;53990;50.334;18.640;2023-02-19T08:53:39;30.00;;;16.90;;
67074;SDS011;53990;50.334;18.640;2023-02-19T08:56:08;20.00;;;13.30;;
67074;SDS011;53990;50.334;18.640;2023-02-19T08:58:36;18.00;;;12.80;;
67074;SDS011;53990;50.334;18.640;2023-02-19T09:01:15;16.40;;;13.40;;
67074;SDS011;53990;50.334;18.640;2023-02-19T09:03:44;18.20;;;13.40;;
67074;SDS011;53990;50.334;18.640;2023-02-19T09:06:14;21.20;;;15.00;;
67074;SDS011;53990;50.334;18.640;2023-02-19T09:08:42;33.20;;;18.90;;
67074;SDS011;53990;50.334;18.640;2023-02-19T09:11:10;29.70;;;15.80;;
67074;SDS011;53990;50.334;18.640;2023-02-19T09:13:37;33.80;;;15.60;;
67074;SDS011;53990;50.334;18.640;2023-02-19T09:16:05;31.20;;;15.20;;
67074;SDS011;53990;50.334;18.640;2023-02-19T09:18:33;23.40;;;12.10;;
67074;SDS011;53990;50.334;18.640;2023-02-19T09:21:03;20.10;;;10.10;;
67074;SDS011;53990;50.334;18.640;2023-02-19T09:23:32;17.10;;;9.20;;
67074;SDS011;53990;50.334;18.640;2023-02-19T09:26:01;23.50;;;12.00;;
67074;SDS011;53990;50.334;18.640;2023-02-19T09:28:41;10.40;;;7.20;;
67074;SDS011;53990;50.334;18.640;2023-02-19T09:31:12;15.70;;;8.20;;
67074;SDS011;53990;50.334;18.640;2023-02-19T09:37:14;16.60;;;9.60;;
67074;SDS011;53990;50.334;18.640;2023-02-19T09:40:47;27.70;;;14.10;;
67074;SDS011;53990;50.334;18.640;2023-02-19T09:47:35;22.90;;;11.40;;
67074;SDS011;53990;50.334;18.640;2023-02-19T09:50:38;7.00;;;4.60;;
67074;SDS011;53990;50.334;18.640;2023-02-19T09:53:28;5.40;;;3.60;;
67074;SDS011;53990;50.334;18.640;2023-02-19T09:55:57;9.20;;;5.30;;
67074;SDS011;53990;50.334;18.640;2023-02-19T09:58:34;7.00;;;4.00;;
67074;SDS011;53990;50.334;18.640;2023-02-19T10:01:03;13.50;;;8.00;;
67074;SDS011;53990;50.334;18.640;2023-02-19T10:03:37;11.30;;;6.30;;
67074;SDS011;53990;50.334;18.640;2023-02-19T10:06:19;5.40;;;3.40;;
67074;SDS011;53990;50.334;18.640;2023-02-19T10:08:50;7.70;;;4.30;;
67074;SDS011;53990;50.334;18.640;2023-02-19T10:11:18;7.70;;;4.20;;
67074;SDS011;53990;50.334;18.640;2023-02-19T10:13:53;15.60;;;6.40;;
67074;SDS011;53990;50.334;18.640;2023-02-19T10:16:25;10.80;;;5.60;;
67074;SDS011;53990;50.334;18.640;2023-02-19T10:18:53;11.00;;;5.40;;
67074;SDS011;53990;50.334;18.640;2023-02-19T10:21:25;9.10;;;4.70;;
67074;SDS011;53990;50.334;18.640;2023-02-19T10:23:56;8.60;;;4.30;;
67074;SDS011;53990;50.334;18.640;2023-02-19T10:26:26;7.60;;;4.10;;
67074;SDS011;53990;50.334;18.640;2023-02-19T10:28:54;5.90;;;3.10;;
67074;SDS011;53990;50.334;18.640;2023-02-19T10:31:24;8.50;;;4.30;;
67074;SDS011;53990;50.334;18.640;2023-02-19T10:33:56;13.20;;;7.20;;
67074;SDS011;53990;50.334;18.640;2023-02-19T10:36:32;12.30;;;6.50;;
67074;SDS011;53990;50.334;18.640;2023-02-19T10:39:07;5.90;;;3.20;;
67074;SDS011;53990;50.334;18.640;2023-02-19T10:41:52;18.00;;;9.70;;
67074;SDS011;53990;50.334;18.640;2023-02-19T10:44:26;30.20;;;17.30;;
67074;SDS011;53990;50.334;18.640;2023-02-19T10:46:57;11.80;;;7.00;;
67074;SDS011;53990;50.334;18.640;2023-02-19T10:49:28;28.90;;;15.80;;
67074;SDS011;53990;50.334;18.640;2023-02-19T10:52:00;8.70;;;4.80;;
67074;SDS011;53990;50.334;18.640;2023-02-19T10:54:31;6.60;;;3.80;;
67074;SDS011;53990;50.334;18.640;2023-02-19T11:00:02;5.30;;;3.00;;
67074;SDS011;53990;50.334;18.640;2023-02-19T11:02:40;7.40;;;4.00;;
67074;SDS011;53990;50.334;18.640;2023-02-19T11:07:36;15.80;;;9.00;;
67074;SDS011;53990;50.334;18.640;2023-02-19T11:10:05;14.10;;;8.50;;
67074;SDS011;53990;50.334;18.640;2023-02-19T11:12:33;7.90;;;4.40;;
67074;SDS011;53990;50.334;18.640;2023-02-19T11:15:20;5.80;;;3.20;;
67074;SDS011;53990;50.334;18.640;2023-02-19T11:18:00;8.20;;;5.10;;
67074;SDS011;53990;50.334;18.640;2023-02-19T11:20:30;13.30;;;8.00;;
67074;SDS011;53990;50.334;18.640;2023-02-19T11:23:19;12.70;;;6.30;;
67074;SDS011;53990;50.334;18.640;2023-02-19T11:25:50;16.10;;;8.50;;
67074;SDS011;53990;50.334;18.640;2023-02-19T11:28:30;14.30;;;8.50;;
67074;SDS011;53990;50.334;18.640;2023-02-19T11:39:18;14.30;;;7.50;;
67074;SDS011;53990;50.334;18.640;2023-02-19T11:45:07;10.00;;;6.00;;
67074;SDS011;53990;50.334;18.640;2023-02-19T11:47:47;11.20;;;7.00;;
67074;SDS011;53990;50.334;18.640;2023-02-19T11:50:32;8.30;;;4.50;;
67074;SDS011;53990;50.334;18.640;2023-02-19T11:53:24;7.80;;;4.50;;
67074;SDS011;53990;50.334;18.640;2023-02-19T11:56:18;7.30;;;3.60;;
67074;SDS011;53990;50.334;18.640;2023-02-19T11:59:01;8.60;;;4.60;;
67074;SDS011;53990;50.334;18.640;2023-02-19T12:10:49;9.10;;;4.60;;
67074;SDS011;53990;50.334;18.640;2023-02-19T12:19:26;7.50;;;4.70;;
67074;SDS011;53990;50.334;18.640;2023-02-19T12:22:10;7.80;;;4.20;;
67074;SDS011;53990;50.334;18.640;2023-02-19T12:27:40;4.90;;;2.90;;
67074;SDS011;53990;50.334;18.640;2023-02-19T12:35:34;25.90;;;11.80;;
67074;SDS011;53990;50.334;18.640;2023-02-19T12:41:06;18.40;;;8.40;;
67074;SDS011;53990;50.334;18.640;2023-02-19T12:44:00;8.30;;;4.20;;
67074;SDS011;53990;50.334;18.640;2023-02-19T12:46:33;7.70;;;3.80;;
67074;SDS011;53990;50.334;18.640;2023-02-19T12:49:16;8.00;;;4.20;;
67074;SDS011;53990;50.334;18.640;2023-02-19T12:51:49;6.70;;;3.30;;
67074;SDS011;53990;50.334;18.640;2023-02-19T12:54:37;5.30;;;2.80;;
67074;SDS011;53990;50.334;18.640;2023-02-19T12:57:21;7.60;;;3.90;;
67074;SDS011;53990;50.334;18.640;2023-02-19T13:02:21;7.90;;;3.60;;
67074;SDS011;53990;50.334;18.640;2023-02-19T13:05:03;7.00;;;3.10;;
67074;SDS011;53990;50.334;18.640;2023-02-19T13:07:38;7.60;;;3.00;;
67074;SDS011;53990;50.334;18.640;2023-02-19T13:12:41;5.10;;;2.90;;
67074;SDS011;53990;50.334;18.640;2023-02-19T13:15:20;7.00;;;2.60;;
67074;SDS011;53990;50.334;18.640;2023-02-19T13:17:52;5.20;;;2.50;;
67074;SDS011;53990;50.334;18.640;2023-02-19T13:20:37;7.30;;;2.50;;
67074;SDS011;53990;50.334;18.640;2023-02-19T13:23:28;5.90;;;2.40;;
67074;SDS011;53990;50.334;18.640;2023-02-19T13:35:24;4.70;;;2.60;;
67074;SDS011;53990;50.334;18.640;2023-02-19T13:37:53;5.40;;;2.20;;
67074;SDS011;53990;50.334;18.640;2023-02-19T13:40:40;5.50;;;2.60;;
67074;SDS011;53990;50.334;18.640;2023-02-19T13:43:26;7.20;;;3.00;;
67074;SDS011;53990;50.334;18.640;2023-02-19T13:45:57;7.20;;;3.00;;
67074;SDS011;53990;50.334;18.640;2023-02-19T13:48:34;5.80;;;3.10;;
67074;SDS011;53990;50.334;18.640;2023-02-19T13:56:37;7.80;;;4.10;;
67074;SDS011;53990;50.334;18.640;2023-02-19T13:59:25;8.50;;;4.10;;
67074;SDS011;53990;50.334;18.640;2023-02-19T14:02:34;7.70;;;3.80;;
67074;SDS011;53990;50.334;18.640;2023-02-19T14:05:05;5.90;;;3.00;;
67074;SDS011;53990;50.334;18.640;2023-02-19T14:07:51;5.80;;;2.80;;
67074;SDS011;53990;50.334;18.640;2023-02-19T14:10:53;6.90;;;3.50;;
67074;SDS011;53990;50.334;18.640;2023-02-19T14:19:44;11.80;;;5.10;;
67074;SDS011;53990;50.334;18.640;2023-02-19T14:27:51;12.50;;;5.50;;
67074;SDS011;53990;50.334;18.640;2023-02-19T14:33:43;13.90;;;6.80;;
67074;SDS011;53990;50.334;18.640;2023-02-19T14:39:03;16.40;;;7.50;;
67074;SDS011;53990;50.334;18.640;2023-02-19T14:41:39;26.10;;;11.70;;
67074;SDS011;53990;50.334;18.640;2023-02-19T14:44:14;21.10;;;9.80;;
67074;SDS011;53990;50.334;18.640;2023-02-19T14:47:02;27.20;;;13.00;;
67074;SDS011;53990;50.334;18.640;2023-02-19T14:49:40;13.00;;;5.80;;
67074;SDS011;53990;50.334;18.640;2023-02-19T14:55:16;8.60;;;4.50;;
67074;SDS011;53990;50.334;18.640;2023-02-19T14:57:51;13.10;;;7.40;;
67074;SDS011;53990;50.334;18.640;2023-02-19T15:00:27;12.10;;;5.90;;
67074;SDS011;53990;50.334;18.640;2023-02-19T15:03:48;9.50;;;4.70;;
67074;SDS011;53990;50.334;18.640;2023-02-19T15:06:47;11.30;;;4.60;;
67074;SDS011;53990;50.334;18.640;2023-02-19T15:09:59;12.30;;;5.70;;
67074;SDS011;53990;50.334;18.640;2023-02-19T15:13:00;10.60;;;4.80;;
67074;SDS011;53990;50.334;18.640;2023-02-19T15:16:18;8.90;;;4.60;;
67074;SDS011;53990;50.334;18.640;2023-02-19T15:31:05;17.20;;;6.50;;
67074;SDS011;53990;50.334;18.640;2023-02-19T15:37:17;10.10;;;4.70;;
67074;SDS011;53990;50.334;18.640;2023-02-19T15:40:04;9.50;;;5.00;;
67074;SDS011;53990;50.334;18.640;2023-02-19T15:43:21;9.40;;;4.30;;
67074;SDS011;53990;50.334;18.640;2023-02-19T15:46:32;11.90;;;6.00;;
67074;SDS011;53990;50.334;18.640;2023-02-19T15:53:08;9.00;;;4.50;;
67074;SDS011;53990;50.334;18.640;2023-02-19T15:57:52;10.80;;;4.80;;
67074;SDS011;53990;50.334;18.640;2023-02-19T16:01:33;8.30;;;4.70;;
67074;SDS011;53990;50.334;18.640;2023-02-19T16:26:27;13.20;;;4.50;;
67074;SDS011;53990;50.334;18.640;2023-02-19T16:29:27;10.40;;;4.70;;
67074;SDS011;53990;50.334;18.640;2023-02-19T16:32:32;10.80;;;4.50;;
67074;SDS011;53990;50.334;18.640;2023-02-19T16:48:05;15.70;;;7.20;;
67074;SDS011;53990;50.334;18.640;2023-02-19T16:51:34;12.30;;;6.10;;
67074;SDS011;53990;50.334;18.640;2023-02-19T16:57:37;18.00;;;7.50;;
67074;SDS011;53990;50.334;18.640;2023-02-19T17:03:59;10.90;;;4.80;;
67074;SDS011;53990;50.334;18.640;2023-02-19T17:16:24;13.00;;;6.10;;
67074;SDS011;53990;50.334;18.640;2023-02-19T17:19:49;11.30;;;5.60;;
67074;SDS011;53990;50.334;18.640;2023-02-19T17:22:24;11.50;;;4.70;;
67074;SDS011;53990;50.334;18.640;2023-02-19T17:25:28;12.20;;;5.00;;
67074;SDS011;53990;50.334;18.640;2023-02-19T17:27:59;8.20;;;3.80;;
67074;SDS011;53990;50.334;18.640;2023-02-19T17:31:05;16.30;;;5.40;;
67074;SDS011;53990;50.334;18.640;2023-02-19T17:38:15;12.60;;;5.20;;
67074;SDS011;53990;50.334;18.640;2023-02-19T17:52:03;22.80;;;13.20;;
67074;SDS011;53990;50.334;18.640;2023-02-19T18:00:27;26.00;;;13.40;;
67074;SDS011;53990;50.334;18.640;2023-02-19T18:05:21;20.20;;;10.50;;
67074;SDS011;53990;50.334;18.640;2023-02-19T18:10:19;22.20;;;11.40;;
67074;SDS011;53990;50.334;18.640;2023-02-19T18:14:10;21.30;;;9.20;;
67074;SDS011;53990;50.334;18.640;2023-02-19T18:17:42;16.50;;;8.10;;
67074;SDS011;53990;50.334;18.640;2023-02-19T18:21:28;19.30;;;9.10;;
67074;SDS011;53990;50.334;18.640;2023-02-19T18:25:18;15.60;;;7.10;;
67074;SDS011;53990;50.334;18.640;2023-02-19T18:34:43;15.60;;;6.60;;
67074;SDS011;53990;50.334;18.640;2023-02-19T18:37:30;15.90;;;8.00;;
67074;SDS011;53990;50.334;18.640;2023-02-19T18:39:59;19.10;;;9.00;;
67074;SDS011;53990;50.334;18.640;2023-02-19T18:42:27;17.60;;;9.80;;
67074;SDS011;53990;50.334;18.640;2023-02-19T18:44:56;21.60;;;10.90;;
67074;SDS011;53990;50.334;18.640;2023-02-19T18:47:28;26.90;;;12.80;;
67074;SDS011;53990;50.334;18.640;2023-02-19T18:53:54;25.80;;;12.60;;
67074;SDS011;53990;50.334;18.640;2023-02-19T18:57:09;24.10;;;11.40;;
67074;SDS011;53990;50.334;18.640;2023-02-19T19:15:52;43.00;;;23.40;;
67074;SDS011;53990;50.334;18.640;2023-02-19T19:18:46;46.30;;;22.40;;
67074;SDS011;53990;50.334;18.640;2023-02-19T19:21:30;38.70;;;19.30;;
67074;SDS011;53990;50.334;18.640;2023-02-19T19:24:43;44.40;;;25.00;;